NCAR-RAP Real-Time Weather Data

Output produced by METARs form (14 October 2019  22:34 UTC)
found at http://weather.rap.ucar.edu/surface/
 
KRIC 142154Z 18004KT 10SM CLR 22/13 A3000 RMK AO2 SLP162 T02220133 $
KRIC 142054Z 22003KT 10SM FEW028 23/12 A2999 RMK AO2 SLP158 T02280122 56012 $
KRIC 141954Z 21004KT 10SM FEW028 22/14 A2999 RMK AO2 SLP160 T02220139 $
KRIC 141854Z 09004KT 10SM FEW022 22/14 A3000 RMK AO2 SLP161 T02170144 $
KRIC 141754Z VRB03KT 10SM FEW020 19/14 A3002 RMK AO2 SLP171 T01940144 10200 20156 58019 $
KRIC 141725Z 01004KT 10SM SCT016 19/14 A3004 RMK AO2 T01940139 $
KRIC 141710Z 30003KT 10SM BKN015 19/14 A3005 RMK AO2 T01890144 $
KRIC 141654Z 33005KT 10SM OVC013 18/14 A3007 RMK AO2 SLP185 T01780144 $
KRIC 141609Z 32004KT 10SM OVC011 17/14 A3007 RMK AO2 T01720144 $
KRIC 141554Z 31004KT 10SM OVC009 17/14 A3007 RMK AO2 SLP187 T01670144 $
KRIC 141454Z 28003KT 10SM OVC009 16/14 A3008 RMK AO2 SLP190 T01610139 51017 $
KRIC 141354Z 29006KT 8SM BKN006 OVC012 16/14 A3007 RMK AO2 SLP188 T01560144 $
KRIC 141342Z 28006KT 7SM BKN006 OVC012 16/14 A3007 RMK AO2 T01560144 $
KRIC 141254Z 29005KT 9SM FEW005 OVC011 16/15 A3005 RMK AO2 SLP180 T01610150 $
KRIC 141231Z 29005KT 8SM FEW005 OVC011 16/14 A3004 RMK AO2 T01610144 $
KRIC 141154Z 30006KT 10SM OVC010 16/15 A3003 RMK AO2 SLP173 60001 70034 T01610150 10167 20150 52023 $
KRIC 141054Z 00000KT 4SM BR FEW004 OVC010 16/15 A3000 RMK AO2 SLP165 T01560150 $
KRIC 140954Z 00000KT 6SM BR SCT004 OVC012 17/14 A2998 RMK AO2 SLP158 T01670144 $
KRIC 140854Z 36004KT 5SM BR OVC004 15/14 A2996 RMK AO2 SLP150 60001 T01500144 56009 $
KRIC 140754Z 01004KT 4SM BR OVC004 15/14 A2996 RMK AO2 SLP150 T01500144 $
KRIC 140654Z 36003KT 5SM BR OVC004 15/14 A2997 RMK AO2 RAE24 SLP153 P0001 T01500144 $
KRIC 140554Z 35005KT 4SM -RA BR OVC002 15/14 A2999 RMK AO2 RAB21 SLP159 P0000 60000 T01500144 10172 20150 56006 $
KRIC 140454Z 35005KT 4SM BR OVC003 16/16 A2999 RMK AO2 SLP160 T01610156 402110133 $
KRIC 140426Z 34005KT 5SM BR OVC006 17/16 A2999 RMK AO2 CIG 003V007 T01670161 $
KRIC 140406Z 00000KT 5SM BR BKN004 BKN008 OVC020 17/16 A3000 RMK AO2 T01720161 $
KRIC 140354Z 00000KT 5SM BR FEW004 SCT012 OVC020 17/16 A3000 RMK AO2 SLP163 T01720161 $
KRIC 140254Z 00000KT 5SM BR SCT004 OVC013 17/16 A3001 RMK AO2 SLP165 60000 T01720161 51001 $
KRIC 140238Z 00000KT 6SM BR SCT004 OVC013 17/16 A3001 RMK AO2 T01670161 $
KRIC 140224Z 02003KT 5SM BR SCT004 BKN015 OVC027 17/16 A3000 RMK AO2 T01670161 $
KRIC 140154Z 02003KT 6SM BR BKN004 OVC020 17/16 A3000 RMK AO2 SLP163 T01670161 $
KRIC 140054Z 32003KT 6SM BR BKN005 OVC047 17/16 A3002 RMK AO2 RAE2355 SLP169 P0000 T01670161 $
KRIC 140040Z 32003KT 6SM BR BKN003 OVC047 17/16 A3002 RMK AO2 RAE2355 P0000 T01670161 $
KRIC 132354Z 04003KT 5SM -RA BR SCT003 BKN032 OVC050 17/16 A3000 RMK AO2 SLP164 P0007 60032 T01670161 10211 20167 57000 $
KRIC 132254Z 06004KT 3SM RA BR BKN045 OVC065 17/16 A3001 RMK AO2 SLP165 P0018 T01670161 $
KRIC 132226Z 34005KT 2SM -RA BR BKN045 OVC065 17/16 A3001 RMK AO2 P0001 T01720161 $
KRIC 132154Z 31005KT 3SM RA BR BKN065 OVC110 18/16 A3000 RMK AO2 RAB13 SLP163 P0007 T01780161 $
KRIC 132133Z 25006KT 3SM RA BR BKN060 OVC110 18/16 A3001 RMK AO2 RAB13 P0004 T01780156 $
KRIC 132054Z 13003KT 10SM FEW040 BKN065 BKN100 19/16 A3000 RMK AO2 RAB00E53 SLP165 P0000 60000 T01890156 58010 $
KRIC 131954Z 00000KT 10SM FEW040 BKN065 OVC110 20/14 A3002 RMK AO2 SLP169 T02000139 $
KRIC 131854Z 17006KT 10SM SCT036 BKN080 BKN110 20/13 A3003 RMK AO2 RAE04 SLP171 P0000 T02000133 $
KRIC 131754Z 09004KT 10SM -RA FEW043 BKN075 BKN100 19/13 A3003 RMK AO2 RAB33 SLP173 P0000 60001 T01890128 10206 20139 58021 $
KRIC 131654Z 09004KT 10SM FEW050 BKN070 BKN090 20/12 A3006 RMK AO2 SLP183 T02000117 $
KRIC 131554Z 06003KT 10SM SCT023 BKN075 BKN085 18/11 A3008 RMK AO2 SLP191 T01780106 $
KRIC 131454Z 04006KT 10SM BKN075 BKN095 16/11 A3009 RMK AO2 RAE12 SLP195 P0001 60001 T01610106 50001 $
KRIC 131354Z 07004KT 10SM -RA BKN070 BKN085 16/09 A3010 RMK AO2 RAB50 SLP198 P0000 T01560089
KRIC 131254Z 04009KT 10SM FEW050 SCT075 BKN120 15/07 A3010 RMK AO2 SLP196 T01500072
KRIC 131154Z 03006KT 10SM FEW050 SCT080 BKN120 14/07 A3009 RMK AO2 SLP193 T01440072 10178 20133 51017
KRIC 131054Z 02008KT 10SM FEW085 BKN120 14/07 A3008 RMK AO2 SLP188 T01390072
KRIC 130954Z 02008KT 10SM SCT085 BKN120 15/07 A3006 RMK AO2 SLP183 T01500072
KRIC 130854Z 04010KT 10SM SCT080 BKN120 16/08 A3004 RMK AO2 SLP176 T01560083 53003
KRIC 130754Z 02008KT 10SM FEW075 OVC120 16/10 A3004 RMK AO2 SLP175 T01610100
KRIC 130654Z 02006KT 10SM SCT090 BKN120 16/12 A3004 RMK AO2 SLP174 T01610122
KRIC 130554Z 04008KT 10SM BKN070 BKN090 18/13 A3003 RMK AO2 SLP173 T01780128 10222 20172 53003
KRIC 130454Z 04006KT 10SM SCT070 BKN090 17/12 A3003 RMK AO2 SLP172 T01720117 402670083
KRIC 130354Z 04006KT 10SM SCT070 BKN090 18/12 A3002 RMK AO2 SLP170 T01780117
KRIC 130254Z 04007KT 10SM BKN065 BKN090 19/12 A3002 RMK AO2 SLP170 T01890117 51009
KRIC 130154Z 04005KT 10SM SCT060 BKN085 19/12 A3002 RMK AO2 SLP170 T01940122
KRIC 130054Z 04006KT 10SM BKN100 21/12 A3001 RMK AO2 SLP166 T02060122
KRIC 122354Z 02007KT 10SM BKN080 BKN110 22/12 A3000 RMK AO2 SLP162 T02220122 10267 20222 51016
KRIC 122254Z 03004KT 10SM BKN075 BKN120 23/12 A2998 RMK AO2 SLP156 T02330122